Japan Airlines Virtual Airport Information Service

Vancouver International Airport

ICAO: CYVR Country: Canada
Latitude: 49.1939 Longitude: -123.184
Latest Arrival : AAL1778 (KSLC-CYVR) Latest Departure : WJA126 (CYVR-CYYC)


WX CaptureLIVE
Data provided by noaa.gov | Fetched at 06:22:54

METAR : CYVR 010600Z 22002KT 20SM SCT230 14/13 A3019 RMK CI3 SLP223

TAF : CYVR 010538Z 0106/0212 VRB03KT P6SM SCT200 TEMPO 0106/0109 3SM FU BR FM010900 VRB03KT P6SM SCT200 TEMPO 0109/0117 3SM FU BR PROB30 0109/0115 1/2SM FG VV002 FM011700 14005KT P6SM BKN150 TEMPO 0117/0123 5SM FU BECMG 0119/0121 25006KT FM012300 30006KT P6SM BKN200 TEMPO 0123/0208 3SM FU BECMG 0203/0205 VRB03KT FM020800 VRB03KT P6SM SCT150 SCT240 TEMPO 0208/0212 2SM FU BR PROB30 0209/0212 1/2SM FG VV002 RMK NXT FCST BY 010900Z


Runway Data for CYVR
Data provided by openaviationdata.com

Runway ID Mag Var Hdg Length Elevation Surface ILS Freq ILS Id ILS Slope
08L 19 81° 9918 ft 14 ft Concrete 110.55 ITL 3
08R 19 80° 11962 ft 14 ft Asphalt 109.5 IVR 3
12 19 122° 7290 ft 14 ft Asphalt 111.1 IMK 3
26L 19 260° 11962 ft 14 ft Asphalt 110.7 IFZ 3
26R 19 261° 9918 ft 14 ft Concrete 111.95 IRD 3
30 19 302° 7290 ft 14 ft Asphalt -- -- --

Vancouver International Airport, Canada
Use only for reference purposes



Not for navigational purposes.